Time;durP1;ratioP1;P1;durP2;ratioP2;P2;SDS_P1;SDS_P2;PMS_P1;PMS_P2;Temp;Humidity;BMP_temperature;BMP_pressure;BME280_temperature;BME280_humidity;BME280_pressure;Samples;Min_cycle;Max_cycle;Signal;HPM_P1;HPM_P2
2021/08/06 00:01:06;;;;;;;15.53;9.07;;;;;;;16.06;80.42;99370.23;128239;1095;22369;-77
2021/08/06 00:03:36;;;;;;;9.83;8.18;;;;;;;16.05;80.47;99365.11;128216;1095;22355;-77
2021/08/06 00:06:06;;;;;;;10.88;8.05;;;;;;;16.05;80.28;99370.44;128234;1095;22480;-76
2021/08/06 00:08:37;;;;;;;9.20;8.35;;;;;;;16.04;80.37;99366.97;128251;1097;23136;-76
2021/08/06 00:11:08;;;;;;;8.80;8.00;;;;;;;16.03;80.30;99360.03;128245;1095;23145;-77
2021/08/06 00:13:37;;;;;;;;;;;;;;;15.97;80.07;99360.93;128459;1095;22353;-76
2021/08/06 00:16:07;;;;;;;8.38;7.60;;;;;;;15.91;80.42;99351.98;128605;1095;21257;-77
2021/08/06 00:18:37;;;;;;;8.93;8.15;;;;;;;15.93;80.81;99349.11;128564;1093;24188;-77
2021/08/06 00:21:06;;;;;;;10.85;8.18;;;;;;;15.93;80.46;99347.26;128574;1094;22363;-76
2021/08/06 00:23:36;;;;;;;8.20;7.40;;;;;;;15.94;80.70;99356.05;128595;1095;22346;-76
2021/08/06 00:26:05;;;;;;;8.50;7.65;;;;;;;15.93;80.47;99349.92;128278;1095;22346;-77
2021/08/06 00:28:35;;;;;;;8.53;7.33;;;;;;;15.95;80.41;99349.68;128640;1095;22346;-77
2021/08/06 00:31:05;;;;;;;9.08;8.25;;;;;;;15.95;80.57;99352.34;128281;1095;22362;-78
2021/08/06 00:33:35;;;;;;;7.63;7.03;;;;;;;15.95;80.60;99353.16;128664;1094;22453;-78
2021/08/06 00:36:05;;;;;;;8.50;7.60;;;;;;;15.96;80.60;99353.95;128342;1095;22347;-78
2021/08/06 00:38:35;;;;;;;7.98;7.15;;;;;;;15.97;80.37;99356.41;128631;1095;23255;-77
2021/08/06 00:41:05;;;;;;;7.50;6.78;;;;;;;15.96;80.23;99351.30;128254;1095;22366;-77
2021/08/06 00:43:36;;;;;;;7.43;6.68;;;;;;;15.95;80.71;99353.16;128279;1095;22363;-77
2021/08/06 00:46:16;;;;;;;7.55;6.65;;;;;;;15.95;80.49;99352.34;128316;1095;22362;-78
2021/08/06 00:48:51;;;;;;;6.63;6.03;;;;;;;15.93;80.28;99355.25;128276;1095;22814;-76
2021/08/06 00:51:21;;;;;;;7.25;6.53;;;;;;;15.91;80.41;99349.32;128540;1095;22666;-77
2021/08/06 00:53:57;;;;;;;7.60;6.03;;;;;;;15.90;80.58;99342.38;128214;1095;22351;-77
2021/08/06 00:56:35;;;;;;;11.13;6.50;;;;;;;15.89;80.55;99340.73;128540;1095;22347;-77
2021/08/06 00:59:06;;;;;;;6.58;5.90;;;;;;;15.88;80.74;99336.45;128233;1094;22350;-76
2021/08/06 01:01:37;;;;;;;6.80;6.20;;;;;;;15.88;80.35;99335.65;128277;1098;22347;-76
2021/08/06 01:04:24;;;;;;;7.33;5.90;;;;;;;15.88;80.50;99341.78;128185;1097;22351;-77
2021/08/06 01:07:02;;;;;;;7.95;6.20;;;;;;;15.85;80.53;99347.56;128198;1097;22383;-78
2021/08/06 01:09:52;;;;;;;7.30;5.70;;;;;;;15.85;80.33;99339.58;128200;1098;22365;-77
2021/08/06 01:13:00;;;;;;;7.50;5.83;;;;;;;15.85;80.67;99330.78;128224;1097;22364;-77
2021/08/06 01:15:36;;;;;;;6.43;5.93;;;;;;;15.86;80.68;99329.73;128204;1098;22346;-75
2021/08/06 01:18:08;;;;;;;7.10;5.75;;;;;;;15.86;80.53;99335.89;128261;1096;22350;-76
2021/08/06 01:20:47;;;;;;;6.07;5.57;;;;;;;15.86;80.58;99330.56;128169;1095;23112;-76
2021/08/06 01:23:34;;;;;;;6.48;5.50;;;;;;;15.85;80.77;99326.26;128366;1095;22347;-77
2021/08/06 01:26:09;;;;;;;6.33;5.83;;;;;;;15.84;80.74;99327.30;128690;1095;22362;-76
2021/08/06 01:29:00;;;;;;;6.03;5.53;;;;;;;15.82;80.85;99326.70;128334;1095;22346;-77
2021/08/06 01:31:35;;;;;;;7.48;5.90;;;;;;;15.81;80.70;99325.09;128587;1095;22351;-76
2021/08/06 01:34:15;;;;;;;6.53;5.23;;;;;;;15.82;80.72;99318.72;128541;1095;22377;-75
2021/08/06 01:36:45;;;;;;;5.83;5.33;;;;;;;15.83;80.85;99317.70;128567;1094;22344;-77
2021/08/06 01:39:20;;;;;;;5.95;5.35;;;;;;;15.83;80.66;99327.52;128350;1095;22365;-76
2021/08/06 01:42:19;;;;;;;6.95;6.13;;;;;;;15.81;80.57;99322.43;128328;1095;22348;-77
2021/08/06 01:44:55;;;;;;;7.55;5.48;;;;;;;15.77;80.67;99318.60;128331;1095;22429;-76
2021/08/06 01:47:47;;;;;;;5.53;5.03;;;;;;;15.76;80.73;99311.63;128255;1095;22789;-76
2021/08/06 01:50:31;;;;;;;9.25;7.00;;;;;;;15.76;80.81;99317.80;128309;1095;22989;-77
2021/08/06 01:53:07;;;;;;;7.63;6.88;;;;;;;15.77;81.04;99310.61;128272;1095;22382;-76
2021/08/06 01:55:54;;;;;;;7.25;6.58;;;;;;;15.78;81.12;99317.55;128533;1095;22367;-77
2021/08/06 01:58:27;;;;;;;8.13;7.33;;;;;;;15.78;81.15;99314.89;128268;1095;22351;-76
2021/08/06 02:01:01;;;;;;;10.98;7.13;;;;;;;15.79;80.83;99308.52;128609;1093;22349;-76
2021/08/06 02:03:32;;;;;;;11.23;6.70;;;;;;;15.79;81.03;99311.18;128313;1095;23126;-76
2021/08/06 02:06:26;;;;;;;8.40;7.15;;;;;;;15.79;81.19;99305.05;128550;1095;22378;-77
2021/08/06 02:09:01;;;;;;;7.05;6.13;;;;;;;15.80;81.18;99306.69;128250;1095;22362;-77
2021/08/06 02:11:35;;;;;;;12.48;6.90;;;;;;;15.79;81.01;99302.39;128358;1095;22373;-75
2021/08/06 02:14:06;;;;;;;7.90;6.58;;;;;;;15.78;81.03;99298.91;128254;1095;22792;-77
2021/08/06 02:16:42;;;;;;;8.58;6.53;;;;;;;15.76;80.97;99298.31;128154;1098;22600;-77
2021/08/06 02:19:14;;;;;;;7.90;7.20;;;;;;;15.75;81.16;99294.84;128190;1098;22360;-77
2021/08/06 02:21:51;;;;;;;8.47;7.27;;;;;;;15.77;81.27;99299.96;127939;1098;23108;-78
2021/08/06 02:24:25;;;;;;;8.13;6.83;;;;;;;15.76;81.26;99292.99;127988;1098;22363;-78
2021/08/06 02:26:58;;;;;;;7.70;6.98;;;;;;;15.77;81.12;99297.30;127963;1098;22394;-78
2021/08/06 02:29:34;;;;;;;7.78;7.10;;;;;;;15.75;81.29;99291.38;128159;1096;22358;-78
2021/08/06 02:32:06;;;;;;;8.00;7.10;;;;;;;15.74;81.15;99290.58;127959;1098;22359;-79
2021/08/06 02:34:38;;;;;;;10.78;7.73;;;;;;;15.72;81.14;99284.65;128042;1095;22397;-77
2021/08/06 02:37:08;;;;;;;7.98;7.28;;;;;;;15.73;81.44;99285.48;128254;1095;22363;-77
2021/08/06 02:39:38;;;;;;;7.40;6.80;;;;;;;15.72;81.50;99278.52;128570;1095;22452;-77
2021/08/06 02:42:07;;;;;;;8.85;7.08;;;;;;;15.72;81.35;99283.84;128245;1095;22347;-77
2021/08/06 02:44:39;;;;;;;10.28;7.88;;;;;;;15.73;81.78;99282.83;128532;1095;22667;-76
2021/08/06 02:47:10;;;;;;;8.45;7.53;;;;;;;15.73;81.98;99286.30;128269;1095;24219;-76
2021/08/06 02:49:41;;;;;;;9.50;7.80;;;;;;;15.72;81.63;99278.52;128601;1095;22683;-76
2021/08/06 02:52:11;;;;;;;7.73;7.00;;;;;;;15.71;81.41;99282.23;128259;1095;24243;-77
2021/08/06 02:54:40;;;;;;;8.25;7.50;;;;;;;15.72;81.42;99270.53;128252;1095;22370;-77
2021/08/06 02:57:10;;;;;;;8.35;7.65;;;;;;;15.72;81.76;99273.19;128520;1095;22384;-77
2021/08/06 02:59:40;;;;;;;7.60;6.80;;;;;;;15.72;81.58;99279.33;128240;1095;22657;-76
2021/08/06 03:02:10;;;;;;;8.65;7.80;;;;;;;15.71;81.89;99266.25;128303;1095;22348;-76
2021/08/06 03:04:40;;;;;;;9.25;8.08;;;;;;;15.71;81.85;99268.91;128539;1095;22363;-77
2021/08/06 03:07:13;;;;;;;8.80;7.33;;;;;;;15.70;81.77;99265.45;128272;1095;24804;-76
2021/08/06 03:09:43;;;;;;;7.70;6.83;;;;;;;15.70;81.54;99259.31;128214;1095;22353;-76
2021/08/06 03:12:13;;;;;;;9.97;8.20;;;;;;;15.71;81.98;99259.08;128556;1095;22337;-76
2021/08/06 03:14:43;;;;;;;7.98;7.38;;;;;;;15.71;81.61;99263.59;128241;1095;22351;-77
2021/08/06 03:17:13;;;;;;;9.08;7.10;;;;;;;15.69;81.56;99269.16;128258;1095;22345;-77
2021/08/06 03:19:45;;;;;;;7.53;6.90;;;;;;;15.67;81.73;99265.90;128267;1095;24492;-76
2021/08/06 03:22:15;;;;;;;9.10;7.20;;;;;;;15.68;81.76;99269.37;128244;1095;22331;-76
2021/08/06 03:24:45;;;;;;;7.40;6.45;;;;;;;15.67;82.08;99265.09;128285;1095;22837;-76
2021/08/06 03:27:15;;;;;;;7.78;6.95;;;;;;;15.68;82.02;99272.03;128257;1095;22362;-77
2021/08/06 03:29:45;;;;;;;8.10;7.30;;;;;;;15.70;82.07;99272.63;128231;1095;24183;-77
2021/08/06 03:32:14;;;;;;;9.68;7.93;;;;;;;15.71;82.32;99271.58;128276;1094;22346;-77
2021/08/06 03:34:45;;;;;;;7.33;6.68;;;;;;;15.71;82.04;99264.40;128273;1095;22378;-77
2021/08/06 03:37:15;;;;;;;7.43;6.85;;;;;;;15.72;82.25;99265.20;128612;1095;22370;-76
2021/08/06 03:39:45;;;;;;;8.28;7.18;;;;;;;15.73;82.14;99267.66;128286;1095;22343;-77
2021/08/06 03:42:14;;;;;;;9.93;7.15;;;;;;;15.74;82.17;99261.28;128273;1095;25015;-78
2021/08/06 03:44:44;;;;;;;8.30;6.95;;;;;;;15.75;82.14;99264.75;128364;1095;22354;-77
2021/08/06 03:47:16;;;;;;;7.93;7.13;;;;;;;15.74;82.22;99268.47;128561;1095;22344;-77
2021/08/06 03:49:46;;;;;;;7.43;6.73;;;;;;;15.75;81.99;99272.74;128289;1095;22345;-77
2021/08/06 03:52:16;;;;;;;8.05;6.75;;;;;;;15.76;82.10;99263.70;128241;1095;22859;-76
2021/08/06 03:54:45;;;;;;;7.60;6.90;;;;;;;15.74;82.08;99250.63;128284;1095;22346;-76
2021/08/06 03:57:16;;;;;;;9.15;7.48;;;;;;;15.74;82.07;99255.16;128218;1095;22363;-77
2021/08/06 03:59:47;;;;;;;7.70;6.88;;;;;;;15.73;82.13;99254.34;128320;1095;22347;-77
2021/08/06 04:02:17;;;;;;;8.98;6.23;;;;;;;15.72;82.41;99250.03;128546;1095;22347;-77
2021/08/06 04:04:47;;;;;;;7.93;6.55;;;;;;;15.73;82.12;99250.88;128233;1095;22863;-78
2021/08/06 04:07:16;;;;;;;7.33;6.60;;;;;;;15.72;81.59;99250.03;128571;1095;22362;-77
2021/08/06 04:09:46;;;;;;;7.00;6.40;;;;;;;15.71;82.10;99250.28;128296;1095;22346;-77
2021/08/06 04:12:16;;;;;;;7.60;6.58;;;;;;;15.70;82.04;99257.45;128333;1095;22347;-77
2021/08/06 04:14:46;;;;;;;7.08;6.28;;;;;;;15.70;82.01;99252.14;128545;1095;22347;-76
2021/08/06 04:17:16;;;;;;;9.93;8.13;;;;;;;15.72;82.16;99258.02;128437;1095;22347;-77
2021/08/06 04:19:46;;;;;;;7.13;6.53;;;;;;;15.73;82.04;99258.86;128286;1095;22616;-77
2021/08/06 04:22:15;;;;;;;6.90;6.35;;;;;;;15.73;82.14;99250.88;128569;1095;22360;-77
2021/08/06 04:24:45;;;;;;;7.50;5.73;;;;;;;15.72;81.98;99252.70;128308;1095;22369;-77
2021/08/06 04:27:15;;;;;;;10.53;6.93;;;;;;;15.71;82.18;99250.28;128279;1095;22351;-77
2021/08/06 04:29:44;;;;;;;9.83;7.00;;;;;;;15.71;82.04;99244.95;128237;1095;24788;-77
2021/08/06 04:32:14;;;;;;;6.85;6.25;;;;;;;15.71;82.23;99250.28;128606;1095;22366;-76
2021/08/06 04:34:44;;;;;;;8.55;6.70;;;;;;;15.71;82.24;99251.09;128291;1095;23164;-76
2021/08/06 04:37:14;;;;;;;7.40;6.33;;;;;;;15.70;82.28;99249.47;128307;1095;22362;-76
2021/08/06 04:39:44;;;;;;;8.43;6.90;;;;;;;15.71;82.21;99243.09;128617;1095;22350;-77
2021/08/06 04:42:13;;;;;;;7.15;6.38;;;;;;;15.72;82.48;99242.05;128277;1095;22364;-77
2021/08/06 04:44:43;;;;;;;8.63;5.88;;;;;;;15.74;82.55;99233.84;128623;1094;24139;-77
2021/08/06 04:47:12;;;;;;;7.65;5.63;;;;;;;15.74;82.41;99239.98;128330;1095;22350;-77
2021/08/06 04:49:42;;;;;;;6.70;6.00;;;;;;;15.73;82.32;99235.70;128317;1095;22362;-75
2021/08/06 04:52:12;;;;;;;8.95;6.25;;;;;;;15.76;82.41;99240.58;128324;1095;22378;-77
2021/08/06 04:54:42;;;;;;;8.68;5.58;;;;;;;15.77;82.13;99238.72;128299;1095;24512;-77
2021/08/06 04:57:11;;;;;;;7.45;5.65;;;;;;;15.77;82.25;99236.06;128301;1095;22418;-77
2021/08/06 04:59:41;;;;;;;7.30;5.75;;;;;;;15.79;82.18;99235.81;128619;1095;22366;-77
2021/08/06 05:02:11;;;;;;;9.00;6.00;;;;;;;15.80;82.42;99232.94;128603;1095;22374;-77
2021/08/06 05:04:40;;;;;;;7.63;5.60;;;;;;;15.81;82.49;99233.75;128222;1095;24243;-79
2021/08/06 05:07:18;;;;;;;7.70;5.68;;;;;;;15.81;82.27;99229.23;128297;1095;22965;-77
2021/08/06 05:09:49;;;;;;;8.45;5.25;;;;;;;15.84;82.65;99234.09;128584;1094;22357;-76
2021/08/06 05:12:18;;;;;;;13.78;6.53;;;;;;;15.87;82.46;99238.97;128267;1095;24499;-75
2021/08/06 05:14:48;;;;;;;8.00;6.30;;;;;;;15.90;82.34;99238.52;128249;1095;22347;-76
2021/08/06 05:17:18;;;;;;;7.13;5.63;;;;;;;15.93;82.29;99245.23;128262;1094;22361;-75
2021/08/06 05:19:48;;;;;;;9.15;5.15;;;;;;;15.95;82.51;99237.81;128202;1095;24492;-77
2021/08/06 05:22:17;;;;;;;6.53;5.60;;;;;;;15.98;82.05;99248.81;128546;1095;22365;-76
2021/08/06 05:24:48;;;;;;;7.90;5.83;;;;;;;15.98;82.28;99232.83;128551;1095;22353;-76
2021/08/06 05:27:18;;;;;;;5.40;4.90;;;;;;;16.02;82.44;99243.03;128511;1095;25104;-77
2021/08/06 05:29:48;;;;;;;8.23;5.03;;;;;;;16.03;82.17;99240.16;128279;1095;22346;-76
2021/08/06 05:32:17;;;;;;;5.80;5.20;;;;;;;16.07;82.21;99241.31;128553;1095;22355;-77
2021/08/06 05:34:48;;;;;;;7.35;5.43;;;;;;;16.09;82.38;99243.73;128295;1095;22351;-76
2021/08/06 05:37:18;;;;;;;7.85;5.88;;;;;;;16.13;82.32;99244.91;128300;1095;22358;-76
2021/08/06 05:39:47;;;;;;;5.40;4.88;;;;;;;16.16;82.36;99250.59;128616;1093;22438;-75
2021/08/06 05:42:19;;;;;;;5.10;4.55;;;;;;;16.18;82.20;99245.82;128603;1094;22343;-76
2021/08/06 05:44:49;;;;;;;9.25;5.13;;;;;;;16.22;82.16;99246.17;128592;1094;22374;-77
2021/08/06 05:47:19;;;;;;;6.18;4.95;;;;;;;16.24;82.09;99238.77;128278;1095;22406;-77
2021/08/06 05:49:49;;;;;;;7.45;5.88;;;;;;;16.29;81.83;99238.06;128299;1095;22370;-76
2021/08/06 05:52:19;;;;;;;7.53;5.38;;;;;;;16.32;81.83;99237.59;128644;1095;22346;-76
2021/08/06 05:54:48;;;;;;;5.30;4.80;;;;;;;16.37;81.62;99248.39;128598;1094;23289;-77
2021/08/06 05:57:18;;;;;;;6.93;4.95;;;;;;;16.39;81.52;99246.28;128257;1095;23312;-77
2021/08/06 05:59:47;;;;;;;5.98;5.38;;;;;;;16.43;81.68;99244.80;128186;1098;22319;-77
2021/08/06 06:02:17;;;;;;;7.10;5.23;;;;;;;16.46;81.60;99241.64;128222;1098;22331;-76
2021/08/06 06:04:55;;;;;;;8.15;4.95;;;;;;;16.48;81.48;99243.03;128391;1096;23196;-74
2021/08/06 06:07:25;;;;;;;6.75;5.20;;;;;;;16.52;81.42;99245.23;128217;1098;22350;-75
2021/08/06 06:09:55;;;;;;;5.33;4.83;;;;;;;16.53;80.91;99250.35;128166;1097;22353;-76
2021/08/06 06:12:24;;;;;;;6.93;4.90;;;;;;;16.53;80.83;99257.52;128136;1098;22366;-76
2021/08/06 06:14:54;;;;;;;5.83;4.70;;;;;;;16.53;80.86;99247.69;127888;1098;24495;-76
2021/08/06 06:17:24;;;;;;;6.00;4.98;;;;;;;16.55;80.98;99252.77;128063;1095;22363;-76
2021/08/06 06:19:53;;;;;;;5.50;5.00;;;;;;;16.55;80.57;99263.44;128567;1093;22344;-76
2021/08/06 06:22:23;;;;;;;7.85;5.15;;;;;;;16.54;80.79;99254.63;128282;1095;22343;-76
2021/08/06 06:24:53;;;;;;;7.15;5.18;;;;;;;16.54;80.31;99253.82;128628;1095;22347;-76
2021/08/06 06:27:22;;;;;;;6.00;4.40;;;;;;;16.54;80.43;99259.96;128560;1093;24583;-76
2021/08/06 06:29:53;;;;;;;7.33;5.20;;;;;;;16.55;80.42;99261.57;128555;1095;22352;-76
2021/08/06 06:32:22;;;;;;;7.20;5.53;;;;;;;16.56;80.67;99262.38;128287;1095;24489;-75
2021/08/06 06:34:53;;;;;;;6.85;4.93;;;;;;;16.55;80.49;99261.57;128675;1093;22355;-75
2021/08/06 06:37:22;;;;;;;6.65;5.70;;;;;;;16.56;80.27;99273.05;128290;1095;22342;-78
2021/08/06 06:39:52;;;;;;;6.53;5.20;;;;;;;16.56;80.07;99271.22;128524;1095;22361;-77
2021/08/06 06:42:22;;;;;;;5.25;4.50;;;;;;;16.57;80.29;99272.02;128517;1095;22359;-76
2021/08/06 06:44:57;;;;;;;10.03;5.48;;;;;;;16.58;80.20;99277.10;128416;1095;22340;-77
2021/08/06 06:47:53;;;;;;;6.55;4.48;;;;;;;16.59;80.36;99270.72;128600;1095;22353;-76
2021/08/06 06:50:28;;;;;;;6.98;4.63;;;;;;;16.57;80.26;99269.36;128318;1095;22365;-77
2021/08/06 06:52:58;;;;;;;8.85;4.75;;;;;;;16.58;80.34;99260.30;128304;1095;22337;-77
2021/08/06 06:55:28;;;;;;;5.48;4.98;;;;;;;16.62;80.12;99274.78;128562;1095;22366;-77
2021/08/06 06:57:58;;;;;;;5.15;4.63;;;;;;;16.64;80.32;99270.84;128671;1095;22359;-77
2021/08/06 07:00:33;;;;;;;5.45;4.45;;;;;;;16.64;80.19;99270.84;128640;1095;22452;-77
2021/08/06 07:03:06;;;;;;;10.58;4.80;;;;;;;16.65;80.14;99271.65;128279;1095;22815;-77
2021/08/06 07:05:35;;;;;;;6.08;5.23;;;;;;;16.66;80.04;99271.44;128625;1095;22359;-77
2021/08/06 07:08:05;;;;;;;6.85;4.98;;;;;;;16.68;80.13;99279.99;128565;1095;22343;-77
2021/08/06 07:10:38;;;;;;;9.15;5.10;;;;;;;16.70;80.10;99282.44;128416;1093;22348;-75
2021/08/06 07:13:08;;;;;;;6.58;5.33;;;;;;;16.70;79.88;99274.44;128303;1095;22379;-76
2021/08/06 07:15:38;;;;;;;8.28;5.05;;;;;;;16.73;79.67;99281.14;128643;1095;22349;-77
2021/08/06 07:18:11;;;;;;;6.10;4.90;;;;;;;16.74;79.74;99285.45;128587;1093;22359;-77
2021/08/06 07:20:42;;;;;;;5.85;5.25;;;;;;;16.73;79.64;99286.47;128352;1095;22365;-77
2021/08/06 07:23:12;;;;;;;8.93;5.28;;;;;;;16.74;79.56;99296.92;128379;1095;22334;-78
2021/08/06 07:25:41;;;;;;;10.63;4.98;;;;;;;16.77;79.79;99293.83;128544;1093;24979;-78
2021/08/06 07:28:13;;;;;;;6.10;4.98;;;;;;;16.82;79.83;99299.25;128273;1095;22331;-77
2021/08/06 07:30:42;;;;;;;4.65;4.23;;;;;;;16.86;79.51;99307.59;128586;1095;22360;-78
2021/08/06 07:33:12;;;;;;;5.25;4.75;;;;;;;16.88;79.40;99308.98;128284;1095;23855;-77
2021/08/06 07:35:42;;;;;;;5.73;5.15;;;;;;;16.89;79.28;99310.63;128272;1095;22335;-79
2021/08/06 07:38:12;;;;;;;7.45;4.78;;;;;;;16.93;79.34;99313.64;128271;1095;23122;-77
2021/08/06 07:40:42;;;;;;;6.88;5.40;;;;;;;16.99;79.17;99312.67;128628;1095;22356;-77
2021/08/06 07:43:13;;;;;;;6.03;4.20;;;;;;;17.08;79.18;99310.47;128586;1095;22368;-77
2021/08/06 07:45:46;;;;;;;5.55;3.50;;;;;;;17.11;78.74;99310.00;128233;1095;22365;-78
2021/08/06 07:48:17;;;;;;;7.45;4.55;;;;;;;17.15;78.60;99305.80;129016;1094;22789;-78
2021/08/06 07:50:47;;;;;;;5.28;4.05;;;;;;;17.21;78.58;99310.20;128269;1095;22347;-79
2021/08/06 07:53:18;;;;;;;5.68;4.38;;;;;;;17.25;78.50;99311.34;128788;1095;22345;-78
2021/08/06 07:55:50;;;;;;;8.40;5.03;;;;;;;17.33;77.94;99318.19;128334;1095;22361;-79
2021/08/06 07:58:20;;;;;;;4.33;3.93;;;;;;;17.40;78.07;99306.31;128722;1095;22364;-78
2021/08/06 08:00:53;;;;;;;3.68;3.38;;;;;;;17.48;77.69;99310.45;128384;1095;22363;-79
2021/08/06 08:03:24;;;;;;;8.47;4.70;;;;;;;17.56;78.08;99310.09;128310;1095;22348;-78
2021/08/06 08:05:53;;;;;;;4.50;3.53;;;;;;;17.68;77.82;99311.89;128580;1095;22348;-79
2021/08/06 08:08:23;;;;;;;4.13;3.38;;;;;;;17.73;77.18;99310.13;128304;1095;22360;-79
2021/08/06 08:10:53;;;;;;;6.83;5.13;;;;;;;17.76;76.36;99307.02;128332;1095;22641;-79
2021/08/06 08:13:26;;;;;;;5.60;2.80;;;;;;;17.76;76.05;99309.69;128328;1095;22472;-79
2021/08/06 08:16:01;;;;;;;3.98;3.10;;;;;;;17.76;75.43;99309.69;128341;1095;22365;-78
2021/08/06 08:18:31;;;;;;;4.37;3.40;;;;;;;17.79;75.56;99309.20;128623;1095;22982;-79
2021/08/06 08:21:02;;;;;;;5.40;3.33;;;;;;;17.86;75.24;99319.74;128340;1095;24496;-78
2021/08/06 08:23:32;;;;;;;6.20;3.97;;;;;;;17.95;75.27;99317.47;128282;1098;22379;-78
2021/08/06 08:26:03;;;;;;;7.43;3.23;;;;;;;18.05;75.16;99314.97;128243;1098;24482;-79
2021/08/06 08:28:35;;;;;;;5.13;3.25;;;;;;;18.16;75.04;99318.61;128237;1098;22360;-79
2021/08/06 08:31:06;;;;;;;5.00;2.95;;;;;;;18.22;74.74;99312.30;128003;1098;22382;-80
2021/08/06 08:33:37;;;;;;;6.10;3.33;;;;;;;18.25;74.16;99309.14;128202;1098;22356;-79
2021/08/06 08:36:06;;;;;;;4.05;3.60;;;;;;;18.29;73.73;99308.44;127932;1098;22513;-79
2021/08/06 08:38:37;;;;;;;4.57;3.90;;;;;;;18.37;73.97;99317.91;127930;1098;22532;-79
2021/08/06 08:41:06;;;;;;;7.05;3.88;;;;;;;18.34;72.82;99316.52;128023;1098;22361;-79
2021/08/06 08:43:42;;;;;;;5.50;4.27;;;;;;;18.31;73.55;99317.00;128016;1098;24502;-78
2021/08/06 08:46:17;;;;;;;5.97;4.53;;;;;;;18.32;73.13;99313.27;128237;1097;22403;-79
2021/08/06 08:48:50;;;;;;;8.88;3.70;;;;;;;18.34;72.39;99321.06;128252;1098;22489;-79
2021/08/06 08:51:20;;;;;;;4.93;3.60;;;;;;;18.30;72.16;99315.39;128098;1098;22399;-79
2021/08/06 08:53:50;;;;;;;6.53;3.88;;;;;;;18.29;71.81;99318.29;128319;1095;22360;-78
2021/08/06 08:56:20;;;;;;;5.50;3.30;;;;;;;18.29;72.26;99313.78;128368;1093;22332;-77
2021/08/06 08:58:51;;;;;;;5.13;4.08;;;;;;;18.38;72.12;99316.03;128660;1095;22355;-77
2021/08/06 09:01:21;;;;;;;8.33;4.63;;;;;;;18.47;72.28;99317.25;128342;1095;24184;-76
2021/08/06 09:03:52;;;;;;;29.90;8.20;;;;;;;18.51;71.89;99318.38;128642;1093;22367;-77
2021/08/06 09:06:43;;;;;;;29.08;7.95;;;;;;;18.58;71.43;99319.01;128339;1095;22344;-77
2021/08/06 09:09:22;;;;;;;13.30;4.75;;;;;;;18.61;71.18;99318.52;128283;1095;24239;-76
2021/08/06 09:12:44;;;;;;;13.35;4.40;;;;;;;18.64;70.79;99318.03;128033;1098;22875;-78
2021/08/06 09:15:51;;;;;;;7.88;3.83;;;;;;;18.67;70.63;99320.22;127978;1098;22364;-76
2021/08/06 09:18:31;;;;;;;10.00;4.05;;;;;;;18.67;70.35;99322.09;127939;1098;22699;-75
2021/08/06 09:21:03;;;;;;;7.13;3.98;;;;;;;18.72;70.34;99322.17;127921;1098;23147;-76
2021/08/06 09:23:36;;;;;;;16.18;4.53;;;;;;;18.79;69.77;99322.80;127930;1098;22385;-77
2021/08/06 09:26:09;;;;;;;4.08;2.85;;;;;;;18.89;69.76;99319.47;127899;1098;22378;-76
2021/08/06 09:29:17;;;;;;;5.58;3.30;;;;;;;19.00;69.49;99331.94;127995;1098;22560;-77
2021/08/06 09:31:53;;;;;;;5.08;3.05;;;;;;;19.09;69.36;99326.95;128276;1098;22537;-76
2021/08/06 09:34:37;;;;;;;4.45;3.48;;;;;;;19.09;68.87;99338.46;128232;1098;22433;-74
2021/08/06 09:37:18;;;;;;;3.70;2.20;;;;;;;19.12;68.21;99337.16;128273;1098;22583;-76
2021/08/06 09:39:57;;;;;;;5.05;2.35;;;;;;;19.11;67.94;99336.36;128007;1098;22526;-77
2021/08/06 09:42:34;;;;;;;3.08;1.95;;;;;;;19.13;67.75;99336.93;127955;1098;22360;-76
2021/08/06 09:45:14;;;;;;;4.33;1.68;;;;;;;19.09;66.73;99349.17;128141;1098;25078;-76
2021/08/06 09:47:46;;;;;;;4.37;1.67;;;;;;;19.02;66.74;99349.34;128207;1098;23310;-76
2021/08/06 09:50:20;;;;;;;8.05;2.75;;;;;;;19.03;66.83;99344.83;128439;1098;24240;-78
2021/08/06 09:52:53;;;;;;;3.08;1.50;;;;;;;19.04;66.29;99343.77;128233;1098;24501;-76
2021/08/06 09:55:33;;;;;;;2.98;1.45;;;;;;;19.01;65.70;99355.77;127983;1098;22362;-76
2021/08/06 09:58:11;;;;;;;4.28;1.40;;;;;;;18.97;65.31;99353.84;128294;1095;22634;-76
2021/08/06 10:00:46;;;;;;;2.75;1.53;;;;;;;18.89;64.15;99355.05;128702;1094;22344;-77
2021/08/06 10:03:35;;;;;;;4.13;1.75;;;;;;;18.88;64.47;99349.96;128631;1095;23313;-76
2021/08/06 10:06:12;;;;;;;2.25;1.43;;;;;;;18.93;64.30;99350.05;128394;1095;22362;-76
2021/08/06 10:08:44;;;;;;;3.53;2.03;;;;;;;18.99;63.58;99357.90;128254;1094;22341;-77
2021/08/06 10:11:16;;;;;;;5.85;1.93;;;;;;;19.01;63.25;99363.80;128624;1095;22442;-76
2021/08/06 10:13:47;;;;;;;3.40;1.75;;;;;;;19.04;63.44;99368.66;128703;1095;22341;-77
2021/08/06 10:16:18;;;;;;;7.00;1.93;;;;;;;19.10;63.25;99353.48;128267;1095;24490;-76
2021/08/06 10:18:47;;;;;;;2.78;1.40;;;;;;;19.07;62.92;99363.88;128400;1095;22346;-75
2021/08/06 10:21:17;;;;;;;4.07;1.17;;;;;;;19.07;62.37;99361.20;128497;1095;22332;-80
2021/08/06 10:23:47;;;;;;;6.00;1.43;;;;;;;19.03;61.66;99358.22;128682;1095;22359;-80
2021/08/06 10:26:17;;;;;;;1.65;0.93;;;;;;;18.97;60.99;99356.52;128428;1095;22367;-78
2021/08/06 10:28:47;;;;;;;3.47;1.00;;;;;;;18.94;60.96;99362.36;128430;1098;22382;-79
2021/08/06 10:31:21;;;;;;;1.75;0.90;;;;;;;18.90;59.99;99362.05;127971;1098;24531;-77
2021/08/06 10:34:10;;;;;;;1.45;0.93;;;;;;;18.87;59.82;99359.06;128331;1098;22365;-78
2021/08/06 10:36:51;;;;;;;1.58;1.00;;;;;;;18.86;58.86;99370.80;128422;1098;24514;-77
2021/08/06 10:39:53;;;;;;;1.50;0.90;;;;;;;18.77;58.64;99363.20;128258;1098;22362;-77
2021/08/06 10:42:32;;;;;;;4.88;1.18;;;;;;;18.70;58.16;99375.10;127627;1101;22484;-77
2021/08/06 10:45:03;;;;;;;1.63;0.98;;;;;;;18.64;57.99;99368.05;127484;1104;22711;-78
2021/08/06 10:47:53;;;;;;;2.93;1.18;;;;;;;18.64;58.13;99373.41;127677;1101;22381;-77
2021/08/06 10:50:23;;;;;;;8.60;1.88;;;;;;;18.68;58.00;99375.33;128020;1101;22216;-77
2021/08/06 10:53:20;;;;;;;6.40;2.43;;;;;;;18.73;57.26;99377.32;128053;1100;22812;-77
2021/08/06 10:56:16;;;;;;;4.73;1.93;;;;;;;18.79;56.89;99376.31;128114;1099;22369;-79
2021/08/06 10:59:11;;;;;;;2.38;1.35;;;;;;;18.72;56.45;99376.48;128037;1100;24583;-77
2021/08/06 11:01:48;;;;;;;3.68;0.90;;;;;;;18.70;56.48;99381.26;128031;1101;22372;-77
2021/08/06 11:04:44;;;;;;;2.25;1.03;;;;;;;18.72;56.10;99384.52;128076;1098;22363;-78
2021/08/06 11:07:34;;;;;;;4.20;1.30;;;;;;;18.72;56.06;99381.03;127931;1101;24855;-76
2021/08/06 11:10:05;;;;;;;1.93;1.08;;;;;;;18.77;56.56;99389.95;127942;1101;22809;-78
2021/08/06 11:12:35;;;;;;;2.55;1.05;;;;;;;18.77;56.25;99381.13;128279;1101;22360;-78
2021/08/06 11:15:07;;;;;;;1.88;0.80;;;;;;;18.74;56.12;99390.44;127662;1101;22466;-77
2021/08/06 11:17:46;;;;;;;4.80;1.70;;;;;;;18.71;55.90;99390.09;127958;1098;22382;-78
2021/08/06 11:20:20;;;;;;;2.48;1.00;;;;;;;18.68;55.66;99390.58;128050;1098;22342;-79
2021/08/06 11:22:51;;;;;;;1.40;1.00;;;;;;;18.65;55.52;99391.87;128382;1098;22404;-77
2021/08/06 11:25:26;;;;;;;2.35;1.15;;;;;;;18.63;55.13;99401.21;128074;1098;22352;-77
2021/08/06 11:28:02;;;;;;;1.83;1.00;;;;;;;18.59;55.32;99395.52;128244;1098;22350;-79
2021/08/06 11:30:38;;;;;;;2.20;0.93;;;;;;;18.60;55.34;99407.85;128251;1098;22396;-78
2021/08/06 11:33:10;;;;;;;7.68;1.95;;;;;;;18.60;55.23;99407.85;128406;1098;22353;-78
2021/08/06 11:35:46;;;;;;;2.45;1.23;;;;;;;18.58;54.82;99402.73;128034;1098;22357;-78
2021/08/06 11:38:23;;;;;;;1.93;0.80;;;;;;;18.61;54.22;99400.63;128301;1098;25030;-78
2021/08/06 11:40:56;;;;;;;5.03;1.20;;;;;;;18.67;54.32;99411.17;128242;1098;22363;-79
2021/08/06 11:43:28;;;;;;;2.20;1.10;;;;;;;18.70;54.41;99402.66;128227;1098;22378;-78
2021/08/06 11:46:12;;;;;;;2.40;1.48;;;;;;;18.74;54.38;99403.81;128353;1095;22760;-75
2021/08/06 11:48:50;;;;;;;4.10;1.30;;;;;;;18.75;54.60;99408.11;128845;1095;22355;-77
2021/08/06 11:51:20;;;;;;;1.33;0.95;;;;;;;18.77;53.82;99400.66;128690;1095;22360;-77
2021/08/06 11:53:50;;;;;;;3.05;1.73;;;;;;;18.80;53.65;99391.34;128377;1095;22783;-76